Time;durP1;ratioP1;P1;durP2;ratioP2;P2;SDS_P1;SDS_P2;PMS_P1;PMS_P2;Temp;Humidity;BMP_temperature;BMP_pressure;BME280_temperature;BME280_humidity;BME280_pressure;Samples;Min_cycle;Max_cycle;Signal;HPM_P1;HPM_P2
2021/10/26 00:01:40;;;;;;;34.72;22.38;;;;;;;;;;6229719;28;20047;-65
2021/10/26 00:04:42;;;;;;;32.92;22.83;;;;;;;;;;6249024;28;20140;-65
2021/10/26 00:07:44;;;;;;;31.77;20.90;;;;;;;;;;6231891;28;20126;-65
2021/10/26 00:10:46;;;;;;;32.47;22.00;;;;;;;;;;6238005;28;20063;-65
2021/10/26 00:13:47;;;;;;;34.25;22.23;;;;;;;;;;6242764;28;20091;-65
2021/10/26 00:16:49;;;;;;;32.25;21.40;;;;;;;;;;6227137;28;20041;-65
2021/10/26 00:19:50;;;;;;;30.80;22.10;;;;;;;;;;6241591;28;20045;-65
2021/10/26 00:22:53;;;;;;;34.70;21.73;;;;;;;;;;6234908;28;20033;-65
2021/10/26 00:25:54;;;;;;;29.27;21.38;;;;;;;;;;6234514;28;20049;-65
2021/10/26 00:28:56;;;;;;;37.58;22.10;;;;;;;;;;6242954;28;20045;-65
2021/10/26 00:31:57;;;;;;;33.92;21.70;;;;;;;;;;6230878;28;20164;-65
2021/10/26 00:34:59;;;;;;;32.17;21.27;;;;;;;;;;6241174;28;20187;-65
2021/10/26 00:38:02;;;;;;;30.23;21.52;;;;;;;;;;6235482;28;20090;-65
2021/10/26 00:41:03;;;;;;;35.92;21.40;;;;;;;;;;6237707;28;20164;-65
2021/10/26 00:44:05;;;;;;;34.38;22.17;;;;;;;;;;6252796;28;20050;-65
2021/10/26 00:47:07;;;;;;;33.08;21.95;;;;;;;;;;6233445;28;20488;-65
2021/10/26 00:50:08;;;;;;;31.30;21.77;;;;;;;;;;6241461;28;20140;-67
2021/10/26 00:53:11;;;;;;;27.63;20.65;;;;;;;;;;6247249;28;20126;-65
2021/10/26 00:56:13;;;;;;;34.28;22.17;;;;;;;;;;6245243;28;20091;-65
2021/10/26 00:59:14;;;;;;;32.28;21.23;;;;;;;;;;6248947;28;20045;-64
2021/10/26 01:02:16;;;;;;;33.53;21.70;;;;;;;;;;6228874;28;20128;-65
2021/10/26 01:05:17;;;;;;;31.50;21.00;;;;;;;;;;6236468;28;20420;-65
2021/10/26 01:08:21;;;;;;;31.30;21.35;;;;;;;;;;6242869;28;20731;-65
2021/10/26 01:11:23;;;;;;;34.92;21.52;;;;;;;;;;6240954;28;20141;-64
2021/10/26 01:14:24;;;;;;;28.17;20.70;;;;;;;;;;6252454;28;20037;-65
2021/10/26 01:17:26;;;;;;;30.42;22.08;;;;;;;;;;6230001;28;20120;-65
2021/10/26 01:20:28;;;;;;;32.10;21.27;;;;;;;;;;6235937;28;20106;-65
2021/10/26 01:23:30;;;;;;;32.53;21.27;;;;;;;;;;6247885;28;20045;-65
2021/10/26 01:26:32;;;;;;;29.77;20.45;;;;;;;;;;6239194;28;20190;-65
2021/10/26 01:29:35;;;;;;;30.67;21.00;;;;;;;;;;6244954;28;20038;-64
2021/10/26 01:32:36;;;;;;;31.60;21.67;;;;;;;;;;6229562;28;20045;-65
2021/10/26 01:35:39;;;;;;;31.38;20.30;;;;;;;;;;6238288;28;20049;-65
2021/10/26 01:38:41;;;;;;;30.50;21.55;;;;;;;;;;6236640;28;20053;-65
2021/10/26 01:41:42;;;;;;;31.40;19.83;;;;;;;;;;6239820;28;20077;-65
2021/10/26 01:44:45;;;;;;;29.58;19.63;;;;;;;;;;6249464;28;20103;-65
2021/10/26 01:47:46;;;;;;;29.92;19.95;;;;;;;;;;6221856;28;20060;-65
2021/10/26 01:50:49;;;;;;;27.88;19.13;;;;;;;;;;6248433;28;20131;-65
2021/10/26 01:53:51;;;;;;;30.25;20.40;;;;;;;;;;6246788;28;20428;-64
2021/10/26 01:56:52;;;;;;;31.83;20.83;;;;;;;;;;6239261;28;20849;-65
2021/10/26 01:59:55;;;;;;;32.58;19.80;;;;;;;;;;6251813;28;20179;-65
2021/10/26 02:02:56;;;;;;;29.63;18.73;;;;;;;;;;6230559;28;20406;-64
2021/10/26 02:05:59;;;;;;;30.48;19.13;;;;;;;;;;6234335;28;20405;-65
2021/10/26 02:09:01;;;;;;;26.30;18.90;;;;;;;;;;6253039;28;20088;-65
2021/10/26 02:12:04;;;;;;;26.90;19.23;;;;;;;;;;6241975;28;20053;-64
2021/10/26 02:15:06;;;;;;;28.83;18.50;;;;;;;;;;6244746;28;20049;-67
2021/10/26 02:18:08;;;;;;;30.17;18.77;;;;;;;;;;6231496;28;20053;-65
2021/10/26 02:21:11;;;;;;;30.10;19.15;;;;;;;;;;6236024;28;20600;-65
2021/10/26 02:24:12;;;;;;;28.00;19.48;;;;;;;;;;6246853;28;20067;-65
2021/10/26 02:27:14;;;;;;;33.45;19.65;;;;;;;;;;6238085;28;20546;-64
2021/10/26 02:30:15;;;;;;;29.45;19.80;;;;;;;;;;6238492;28;20046;-66
2021/10/26 02:33:17;;;;;;;32.58;20.35;;;;;;;;;;6238213;28;20041;-65
2021/10/26 02:36:20;;;;;;;29.92;21.10;;;;;;;;;;6234678;28;20405;-65
2021/10/26 02:39:21;;;;;;;30.92;20.75;;;;;;;;;;6244262;28;20052;-65
2021/10/26 02:42:22;;;;;;;30.10;20.38;;;;;;;;;;6232949;28;20049;-65
2021/10/26 02:45:27;;;;;;;31.20;21.00;;;;;;;;;;6235840;28;20975;-65
2021/10/26 02:48:29;;;;;;;30.58;20.45;;;;;;;;;;6241051;28;20057;-65
2021/10/26 02:51:32;;;;;;;28.98;20.00;;;;;;;;;;6234142;28;20052;-65
2021/10/26 02:54:33;;;;;;;31.67;20.63;;;;;;;;;;6243199;28;20052;-65
2021/10/26 02:57:35;;;;;;;30.33;20.90;;;;;;;;;;6238357;28;20179;-65
2021/10/26 03:00:36;;;;;;;28.17;20.25;;;;;;;;;;6243184;28;20033;-66
2021/10/26 03:03:38;;;;;;;30.33;20.38;;;;;;;;;;6245248;28;20131;-65
2021/10/26 03:06:43;;;;;;;30.30;20.05;;;;;;;;;;6243745;28;20045;-65
2021/10/26 03:09:46;;;;;;;28.25;20.10;;;;;;;;;;6253059;28;20056;-65
2021/10/26 03:12:47;;;;;;;30.42;20.33;;;;;;;;;;6245042;28;20068;-65
2021/10/26 03:15:49;;;;;;;28.05;18.83;;;;;;;;;;6236420;28;20763;-65
2021/10/26 03:18:50;;;;;;;31.40;19.98;;;;;;;;;;6251572;28;21635;-65
2021/10/26 03:21:53;;;;;;;29.85;20.08;;;;;;;;;;6235081;28;20044;-65
2021/10/26 03:24:55;;;;;;;27.95;19.15;;;;;;;;;;6248256;28;20076;-65
2021/10/26 03:27:56;;;;;;;30.20;20.77;;;;;;;;;;6237998;28;20032;-65
2021/10/26 03:31:01;;;;;;;29.10;19.17;;;;;;;;;;6232855;28;20046;-65
2021/10/26 03:34:02;;;;;;;28.27;19.35;;;;;;;;;;6249000;28;20061;-65
2021/10/26 03:37:06;;;;;;;27.15;19.48;;;;;;;;;;6243938;28;20048;-65
2021/10/26 03:40:09;;;;;;;30.63;20.27;;;;;;;;;;6244739;28;20056;-67
2021/10/26 03:43:10;;;;;;;30.95;19.88;;;;;;;;;;6254208;28;20115;-65
2021/10/26 03:46:13;;;;;;;28.92;19.48;;;;;;;;;;6235390;28;20073;-67
2021/10/26 03:49:15;;;;;;;31.63;19.33;;;;;;;;;;6249773;28;20068;-66
2021/10/26 03:52:18;;;;;;;29.77;20.98;;;;;;;;;;6244162;28;22021;-67
2021/10/26 03:55:20;;;;;;;29.88;20.33;;;;;;;;;;6251161;28;20044;-66
2021/10/26 03:58:22;;;;;;;28.95;19.55;;;;;;;;;;6254635;28;20045;-67
2021/10/26 04:01:23;;;;;;;30.42;20.65;;;;;;;;;;6246176;28;20092;-65
2021/10/26 04:04:24;;;;;;;31.77;21.52;;;;;;;;;;6257910;28;20060;-64
2021/10/26 04:07:27;;;;;;;32.22;21.52;;;;;;;;;;6250875;28;20071;-66
2021/10/26 04:10:36;;;;;;;31.38;20.42;;;;;;;;;;6243963;28;20068;-68
2021/10/26 04:13:37;;;;;;;33.60;20.77;;;;;;;;;;6257115;28;20135;-67
2021/10/26 04:16:39;;;;;;;33.25;20.60;;;;;;;;;;6235203;28;20098;-64
2021/10/26 04:19:41;;;;;;;31.08;20.55;;;;;;;;;;6251645;28;20055;-65
2021/10/26 04:22:44;;;;;;;31.50;21.00;;;;;;;;;;6234226;28;20061;-67
2021/10/26 04:25:45;;;;;;;31.42;21.63;;;;;;;;;;6236279;28;20059;-66
2021/10/26 04:28:46;;;;;;;34.47;22.30;;;;;;;;;;6248303;28;20098;-65
2021/10/26 04:31:48;;;;;;;34.13;21.70;;;;;;;;;;6235458;28;20050;-64
2021/10/26 04:34:49;;;;;;;32.35;21.98;;;;;;;;;;6242480;28;20050;-65
2021/10/26 04:37:53;;;;;;;32.95;21.48;;;;;;;;;;6231393;28;20686;-65
2021/10/26 04:40:57;;;;;;;32.38;22.35;;;;;;;;;;6237004;28;20042;-66
2021/10/26 04:43:58;;;;;;;;;;;;;;;;;;6245916;28;20171;-65
2021/10/26 04:47:00;;;;;;;34.63;22.17;;;;;;;;;;6231923;28;19995;-65
2021/10/26 04:50:01;;;;;;;32.28;22.23;;;;;;;;;;6245156;28;20052;-66
2021/10/26 04:53:04;;;;;;;33.25;21.33;;;;;;;;;;6238079;28;20152;-67
2021/10/26 04:56:05;;;;;;;31.25;21.70;;;;;;;;;;6235428;28;20045;-64
2021/10/26 04:59:06;;;;;;;34.88;22.98;;;;;;;;;;6253382;28;20132;-66
2021/10/26 05:02:08;;;;;;;36.25;24.33;;;;;;;;;;6231867;28;20049;-65
2021/10/26 05:05:10;;;;;;;40.97;25.35;;;;;;;;;;6235672;28;20136;-68
2021/10/26 05:08:13;;;;;;;41.97;26.88;;;;;;;;;;6242435;28;20057;-67
2021/10/26 05:11:14;;;;;;;38.92;26.77;;;;;;;;;;6236699;28;20049;-64
2021/10/26 05:14:16;;;;;;;39.50;26.75;;;;;;;;;;6248819;28;20505;-65
2021/10/26 05:17:20;;;;;;;40.70;27.08;;;;;;;;;;6228724;28;20042;-65
2021/10/26 05:20:22;;;;;;;43.60;29.73;;;;;;;;;;6236187;28;20504;-66
2021/10/26 05:23:25;;;;;;;40.03;29.65;;;;;;;;;;6244804;28;20047;-65
2021/10/26 05:26:26;;;;;;;44.83;31.52;;;;;;;;;;6240552;28;20094;-64
2021/10/26 05:29:28;;;;;;;42.35;30.10;;;;;;;;;;6258417;28;20044;-64
2021/10/26 05:32:29;;;;;;;44.00;31.08;;;;;;;;;;6242220;28;20049;-64
2021/10/26 05:35:31;;;;;;;44.90;31.17;;;;;;;;;;6235505;28;20045;-64
2021/10/26 05:38:33;;;;;;;47.17;31.27;;;;;;;;;;6246029;28;20481;-64
2021/10/26 05:41:35;;;;;;;42.15;29.77;;;;;;;;;;6239392;28;20052;-65
2021/10/26 05:44:36;;;;;;;39.78;28.30;;;;;;;;;;6248929;28;20049;-63
2021/10/26 05:47:38;;;;;;;39.72;27.33;;;;;;;;;;6236587;28;20060;-66
2021/10/26 05:50:39;;;;;;;34.30;25.05;;;;;;;;;;6234834;28;20441;-64
2021/10/26 05:53:42;;;;;;;40.47;26.25;;;;;;;;;;6248970;28;20148;-66
2021/10/26 05:56:43;;;;;;;42.70;24.95;;;;;;;;;;6232013;28;20516;-64
2021/10/26 05:59:45;;;;;;;33.60;23.92;;;;;;;;;;6245095;28;20122;-64
2021/10/26 06:02:46;;;;;;;34.20;23.63;;;;;;;;;;6231492;28;20817;-64
2021/10/26 06:05:47;;;;;;;33.58;23.15;;;;;;;;;;6239403;28;20050;-67
2021/10/26 06:08:52;;;;;;;35.67;23.17;;;;;;;;;;6246653;28;20045;-66
2021/10/26 06:11:54;;;;;;;36.67;23.10;;;;;;;;;;6243909;28;20195;-66
2021/10/26 06:14:55;;;;;;;34.08;22.38;;;;;;;;;;6249268;28;20187;-66
2021/10/26 06:17:56;;;;;;;33.40;21.80;;;;;;;;;;6235041;28;20057;-66
2021/10/26 06:20:58;;;;;;;34.33;20.50;;;;;;;;;;6245956;28;20235;-66
2021/10/26 06:24:01;;;;;;;28.13;18.92;;;;;;;;;;6247637;28;20048;-66
2021/10/26 06:27:02;;;;;;;27.50;18.25;;;;;;;;;;6244719;28;20124;-66
2021/10/26 06:30:04;;;;;;;32.70;19.50;;;;;;;;;;6252178;28;20393;-67
2021/10/26 06:33:05;;;;;;;46.50;19.25;;;;;;;;;;6239377;28;20160;-66
2021/10/26 06:36:07;;;;;;;34.17;19.65;;;;;;;;;;6232465;28;20140;-66
2021/10/26 06:39:09;;;;;;;25.85;17.65;;;;;;;;;;6251142;28;20123;-63
2021/10/26 06:42:11;;;;;;;26.70;17.23;;;;;;;;;;6240745;28;20056;-63
2021/10/26 06:45:13;;;;;;;28.10;16.95;;;;;;;;;;6245716;28;20041;-64
2021/10/26 06:48:14;;;;;;;28.95;17.63;;;;;;;;;;6252103;28;20178;-64
2021/10/26 06:51:16;;;;;;;22.77;16.02;;;;;;;;;;6240753;28;20072;-64
2021/10/26 06:54:18;;;;;;;21.27;14.70;;;;;;;;;;6243253;28;20219;-64
2021/10/26 06:57:21;;;;;;;40.22;17.65;;;;;;;;;;6232984;28;20172;-64
2021/10/26 07:00:24;;;;;;;29.52;18.02;;;;;;;;;;6234436;28;20514;-65
2021/10/26 07:03:25;;;;;;;29.00;17.45;;;;;;;;;;6244227;28;20081;-63
2021/10/26 07:06:28;;;;;;;27.95;17.48;;;;;;;;;;6242576;28;20073;-63
2021/10/26 07:09:31;;;;;;;31.65;17.92;;;;;;;;;;6251317;28;20094;-63
2021/10/26 07:12:32;;;;;;;30.08;17.17;;;;;;;;;;6241287;28;20045;-64
2021/10/26 07:15:33;;;;;;;30.95;17.58;;;;;;;;;;6238838;28;20057;-64
2021/10/26 07:18:35;;;;;;;33.10;17.95;;;;;;;;;;6235235;28;20184;-65
2021/10/26 07:21:37;;;;;;;26.08;17.70;;;;;;;;;;6231038;28;20050;-67
2021/10/26 07:24:39;;;;;;;30.58;19.00;;;;;;;;;;6243231;28;20450;-67
2021/10/26 07:27:41;;;;;;;46.83;19.88;;;;;;;;;;6243566;28;20505;-67
2021/10/26 07:30:44;;;;;;;43.75;19.67;;;;;;;;;;6239889;28;20118;-68
2021/10/26 07:33:46;;;;;;;37.75;20.80;;;;;;;;;;6241314;28;20103;-67
2021/10/26 07:36:48;;;;;;;37.00;20.08;;;;;;;;;;6241184;28;20062;-67
2021/10/26 07:39:51;;;;;;;28.50;18.73;;;;;;;;;;6241672;28;20060;-67
2021/10/26 07:42:53;;;;;;;31.75;18.55;;;;;;;;;;6234670;28;20081;-65
2021/10/26 07:45:54;;;;;;;33.50;19.52;;;;;;;;;;6231461;28;20045;-67
2021/10/26 07:48:56;;;;;;;42.03;19.63;;;;;;;;;;6240349;28;20081;-66
2021/10/26 07:51:58;;;;;;;31.45;19.70;;;;;;;;;;6231575;28;20037;-67
2021/10/26 07:55:02;;;;;;;35.13;19.83;;;;;;;;;;6250519;28;20061;-67
2021/10/26 07:58:04;;;;;;;30.23;19.20;;;;;;;;;;6235558;28;20063;-67
2021/10/26 08:01:05;;;;;;;39.72;19.88;;;;;;;;;;6232990;28;20175;-67
2021/10/26 08:04:07;;;;;;;40.60;20.25;;;;;;;;;;6245762;28;20855;-67
2021/10/26 08:07:08;;;;;;;44.72;20.70;;;;;;;;;;6235871;28;20132;-67
2021/10/26 08:10:11;;;;;;;29.77;18.35;;;;;;;;;;6240613;28;20160;-67
2021/10/26 08:13:12;;;;;;;29.92;20.05;;;;;;;;;;6238152;28;20103;-66
2021/10/26 08:16:14;;;;;;;27.15;18.48;;;;;;;;;;6229263;28;20140;-66
2021/10/26 08:19:15;;;;;;;25.65;18.13;;;;;;;;;;6238470;28;20103;-67
2021/10/26 08:22:18;;;;;;;35.17;18.85;;;;;;;;;;6230522;28;20070;-65
2021/10/26 08:25:23;;;;;;;33.80;19.48;;;;;;;;;;6238988;28;20053;-65
2021/10/26 08:28:26;;;;;;;26.25;19.20;;;;;;;;;;6244349;28;20638;-65
2021/10/26 08:31:35;;;;;;;26.40;18.07;;;;;;;;;;6234062;28;20055;-65
2021/10/26 08:34:45;;;;;;;43.92;20.67;;;;;;;;;;6243718;28;20103;-66
2021/10/26 08:37:47;;;;;;;29.95;20.02;;;;;;;;;;6236066;28;20064;-67
2021/10/26 08:40:50;;;;;;;30.45;19.25;;;;;;;;;;6232675;28;20523;-65
2021/10/26 08:43:52;;;;;;;26.67;19.42;;;;;;;;;;6244126;28;20053;-66
2021/10/26 08:46:53;;;;;;;26.83;19.00;;;;;;;;;;6235943;28;20192;-66
2021/10/26 08:49:54;;;;;;;27.58;20.13;;;;;;;;;;6248904;28;20172;-67
2021/10/26 08:52:56;;;;;;;27.02;20.30;;;;;;;;;;6239239;28;20128;-67
2021/10/26 08:56:00;;;;;;;29.42;19.35;;;;;;;;;;6241231;28;20050;-69
2021/10/26 08:59:01;;;;;;;29.48;19.73;;;;;;;;;;6250254;28;20045;-66
2021/10/26 09:02:02;;;;;;;33.03;19.90;;;;;;;;;;6232862;28;20048;-66
2021/10/26 09:05:08;;;;;;;28.92;18.33;;;;;;;;;;6248601;28;20041;-67
2021/10/26 09:08:11;;;;;;;26.23;19.77;;;;;;;;;;6245636;28;20046;-66
2021/10/26 09:11:22;;;;;;;28.02;19.45;;;;;;;;;;6242027;28;20060;-66
2021/10/26 09:17:44;;;;;;;34.88;19.10;;;;;;;;;;6233393;28;20053;-66
2021/10/26 09:20:49;;;;;;;25.90;19.70;;;;;;;;;;6239681;28;20134;-67
2021/10/26 09:23:51;;;;;;;23.95;18.88;;;;;;;;;;6251851;28;20045;-66
2021/10/26 09:26:54;;;;;;;25.65;19.77;;;;;;;;;;6244991;28;20671;-65
2021/10/26 09:29:56;;;;;;;;;;;;;;;;;;6253285;28;20037;-65
2021/10/26 09:32:57;;;;;;;27.65;19.45;;;;;;;;;;6238467;28;20667;-65
2021/10/26 09:36:17;;;;;;;30.95;21.15;;;;;;;;;;6245717;28;20139;-65
2021/10/26 09:39:21;;;;;;;31.50;20.20;;;;;;;;;;6248296;28;20080;-66
2021/10/26 09:42:24;;;;;;;31.58;19.23;;;;;;;;;;6240610;28;20195;-65
2021/10/26 09:45:31;;;;;;;26.58;19.38;;;;;;;;;;6237568;28;20055;-66
2021/10/26 09:48:34;;;;;;;31.98;19.85;;;;;;;;;;6241891;28;20061;-66
2021/10/26 09:51:35;;;;;;;28.02;19.20;;;;;;;;;;6238538;28;20512;-65
2021/10/26 09:54:37;;;;;;;26.58;20.30;;;;;;;;;;6248687;28;20052;-65
2021/10/26 09:57:41;;;;;;;31.58;20.92;;;;;;;;;;6237372;28;20081;-65
2021/10/26 10:00:44;;;;;;;29.35;21.30;;;;;;;;;;6240647;28;21045;-66
2021/10/26 10:03:45;;;;;;;;;;;;;;;;;;6245912;28;20090;-65
2021/10/26 10:06:50;;;;;;;28.52;21.70;;;;;;;;;;6239298;28;19927;-65
2021/10/26 10:09:54;;;;;;;30.13;20.42;;;;;;;;;;6245288;28;20045;-67
2021/10/26 10:13:03;;;;;;;27.58;20.38;;;;;;;;;;6237975;28;20123;-66
2021/10/26 10:16:05;;;;;;;24.83;20.85;;;;;;;;;;6235649;28;20470;-66
2021/10/26 10:19:08;;;;;;;28.40;19.90;;;;;;;;;;6246732;28;20067;-65
2021/10/26 10:22:10;;;;;;;24.27;20.25;;;;;;;;;;6233985;28;20050;-66
2021/10/26 10:25:12;;;;;;;28.00;21.48;;;;;;;;;;6241810;28;20293;-66
2021/10/26 10:28:15;;;;;;;28.85;22.05;;;;;;;;;;6246475;28;20045;-65
2021/10/26 10:31:19;;;;;;;;;;;;;;;;;;6231536;28;20420;-66
2021/10/26 10:34:23;;;;;;;26.13;20.80;;;;;;;;;;6256078;28;19936;-65
2021/10/26 10:37:26;;;;;;;25.55;20.83;;;;;;;;;;6234769;28;20041;-66
2021/10/26 10:40:28;;;;;;;27.90;21.48;;;;;;;;;;6237908;28;20518;-65
2021/10/26 10:43:38;;;;;;;25.77;20.27;;;;;;;;;;6246851;28;20072;-66
2021/10/26 10:46:41;;;;;;;25.25;20.10;;;;;;;;;;6229950;28;20046;-66
2021/10/26 10:49:42;;;;;;;;;;;;;;;;;;6247224;28;20535;-65
2021/10/26 10:52:43;;;;;;;26.90;19.95;;;;;;;;;;6237314;28;19925;-66
2021/10/26 10:55:46;;;;;;;24.00;19.05;;;;;;;;;;6235614;28;20045;-65
2021/10/26 10:58:49;;;;;;;22.95;19.35;;;;;;;;;;6244930;28;20041;-69
2021/10/26 11:02:11;;;;;;;23.48;20.15;;;;;;;;;;6231696;28;20055;-70
2021/10/26 11:05:40;;;;;;;26.83;19.75;;;;;;;;;;6232754;28;21453;-70
2021/10/26 11:08:46;;;;;;;23.02;19.25;;;;;;;;;;6242779;28;20118;-68
2021/10/26 11:12:07;;;;;;;22.35;19.20;;;;;;;;;;6242071;28;20048;-68
2021/10/26 11:15:10;;;;;;;23.70;19.60;;;;;;;;;;6239756;28;20187;-71
2021/10/26 11:18:32;;;;;;;23.38;19.25;;;;;;;;;;6248301;28;20117;-65
2021/10/26 11:21:36;;;;;;;22.02;17.73;;;;;;;;;;6244983;28;20438;-68
2021/10/26 11:24:57;;;;;;;28.55;18.77;;;;;;;;;;6244233;28;20045;-69
2021/10/26 11:27:59;;;;;;;18.13;16.20;;;;;;;;;;6232252;28;20370;-68
2021/10/26 11:31:04;;;;;;;18.58;13.77;;;;;;;;;;6233027;28;20174;-71
2021/10/26 11:34:07;;;;;;;15.77;13.15;;;;;;;;;;6239866;28;20569;-69
2021/10/26 11:37:08;;;;;;;;;;;;;;;;;;6231696;28;20175;-65
2021/10/26 11:40:10;;;;;;;14.40;12.50;;;;;;;;;;6239128;28;20070;-73
2021/10/26 11:43:11;;;;;;;16.40;12.97;;;;;;;;;;6239880;28;20128;-65
2021/10/26 11:46:15;;;;;;;16.90;12.32;;;;;;;;;;6230286;28;20654;-65
2021/10/26 11:49:20;;;;;;;16.75;14.32;;;;;;;;;;6242860;28;20133;-65
2021/10/26 11:52:22;;;;;;;17.95;13.57;;;;;;;;;;6233097;28;20378;-72
2021/10/26 11:55:27;;;;;;;21.57;15.17;;;;;;;;;;6235960;28;20110;-68
2021/10/26 11:58:28;;;;;;;20.40;15.20;;;;;;;;;;6242968;28;20480;-66
2021/10/26 12:01:48;;;;;;;19.70;15.93;;;;;;;;;;6233468;28;20057;-68
2021/10/26 12:04:52;;;;;;;19.83;14.80;;;;;;;;;;6249653;28;20327;-68
2021/10/26 12:07:55;;;;;;;16.95;14.80;;;;;;;;;;6237490;28;20053;-68
2021/10/26 12:11:04;;;;;;;17.92;12.52;;;;;;;;;;6230242;28;20036;-69
2021/10/26 12:14:16;;;;;;;16.55;13.32;;;;;;;;;;6244469;28;20041;-67
2021/10/26 12:17:23;;;;;;;15.80;13.63;;;;;;;;;;6224401;28;20116;-69
2021/10/26 12:20:24;;;;;;;18.33;13.70;;;;;;;;;;6232084;28;20044;-66
2021/10/26 12:23:25;;;;;;;16.73;12.75;;;;;;;;;;6238058;28;20056;-63
2021/10/26 12:26:27;;;;;;;17.73;13.38;;;;;;;;;;6233993;28;20132;-66
2021/10/26 12:29:30;;;;;;;15.23;12.93;;;;;;;;;;6244355;28;20443;-67
2021/10/26 12:32:33;;;;;;;17.70;15.10;;;;;;;;;;6223689;28;20486;-66
2021/10/26 12:35:34;;;;;;;;;;;;;;;;;;6232732;28;20126;-65
2021/10/26 12:38:37;;;;;;;18.02;14.48;;;;;;;;;;6241918;28;20028;-66
2021/10/26 12:41:38;;;;;;;16.00;13.57;;;;;;;;;;6235708;28;20180;-65
2021/10/26 12:44:52;;;;;;;18.10;13.75;;;;;;;;;;6243637;28;20045;-64
2021/10/26 12:47:57;;;;;;;17.92;14.02;;;;;;;;;;6229338;28;20110;-65
2021/10/26 12:50:59;;;;;;;16.48;13.35;;;;;;;;;;6238763;28;20049;-66
2021/10/26 12:54:10;;;;;;;16.63;13.93;;;;;;;;;;6248501;28;20049;-66
2021/10/26 12:57:13;;;;;;;17.02;13.57;;;;;;;;;;6245094;28;20494;-66
2021/10/26 13:00:18;;;;;;;16.65;13.00;;;;;;;;;;6232930;28;20057;-67
2021/10/26 13:03:24;;;;;;;18.60;12.52;;;;;;;;;;6236312;28;20045;-67
2021/10/26 13:06:28;;;;;;;20.50;12.77;;;;;;;;;;6232568;28;20051;-66
2021/10/26 13:09:35;;;;;;;14.48;12.90;;;;;;;;;;6243946;28;20046;-65
2021/10/26 13:12:39;;;;;;;14.85;13.35;;;;;;;;;;6233645;28;20042;-66
2021/10/26 13:15:44;;;;;;;16.02;12.93;;;;;;;;;;6237864;28;20064;-65
2021/10/26 13:18:47;;;;;;;18.88;13.45;;;;;;;;;;6242406;28;20413;-66
2021/10/26 13:21:48;;;;;;;15.10;12.93;;;;;;;;;;6232067;28;20529;-66
2021/10/26 13:24:50;;;;;;;15.63;13.18;;;;;;;;;;6240339;28;20038;-66
2021/10/26 13:27:52;;;;;;;17.92;12.70;;;;;;;;;;6238911;28;20081;-66
2021/10/26 13:30:56;;;;;;;16.75;12.85;;;;;;;;;;6233231;28;20045;-67
2021/10/26 13:33:59;;;;;;;13.60;11.77;;;;;;;;;;6238474;28;20126;-69
2021/10/26 13:37:00;;;;;;;18.35;12.18;;;;;;;;;;6239112;28;20135;-66
2021/10/26 13:40:04;;;;;;;16.70;12.90;;;;;;;;;;6241161;28;25435;-66
2021/10/26 13:43:06;;;;;;;15.32;12.57;;;;;;;;;;6233279;28;20042;-67
2021/10/26 13:46:09;;;;;;;15.90;12.85;;;;;;;;;;6231039;28;20462;-65
2021/10/26 13:49:12;;;;;;;14.93;12.27;;;;;;;;;;6243362;28;20140;-64
2021/10/26 13:52:13;;;;;;;16.95;12.38;;;;;;;;;;6234414;28;20049;-68
2021/10/26 13:55:15;;;;;;;18.83;13.25;;;;;;;;;;6238962;28;20382;-68
2021/10/26 13:58:16;;;;;;;22.52;16.70;;;;;;;;;;6249574;28;20087;-67
2021/10/26 14:01:19;;;;;;;23.08;15.63;;;;;;;;;;6234273;28;20095;-66
2021/10/26 14:04:22;;;;;;;21.65;17.40;;;;;;;;;;6242865;28;20216;-66
2021/10/26 14:07:23;;;;;;;23.05;15.40;;;;;;;;;;6232732;28;20045;-66
2021/10/26 14:10:25;;;;;;;18.63;15.20;;;;;;;;;;6235877;28;20228;-67
2021/10/26 14:13:26;;;;;;;19.33;15.07;;;;;;;;;;6253396;28;20038;-65
2021/10/26 14:16:28;;;;;;;24.55;15.73;;;;;;;;;;6230893;28;20050;-63
2021/10/26 14:19:31;;;;;;;20.10;15.38;;;;;;;;;;6244253;28;20320;-67
2021/10/26 14:22:32;;;;;;;24.50;17.38;;;;;;;;;;6243022;28;20052;-66
2021/10/26 14:25:34;;;;;;;21.48;16.70;;;;;;;;;;6242131;28;20099;-66
2021/10/26 14:28:36;;;;;;;22.92;15.68;;;;;;;;;;6245898;28;20052;-65
2021/10/26 14:31:37;;;;;;;20.02;15.00;;;;;;;;;;6235790;28;20137;-65
2021/10/26 14:34:43;;;;;;;21.23;16.80;;;;;;;;;;6259340;28;20124;-64
2021/10/26 14:37:52;;;;;;;23.90;15.98;;;;;;;;;;6236791;28;20053;-67
2021/10/26 14:41:10;;;;;;;21.92;17.88;;;;;;;;;;6235251;28;20061;-66
2021/10/26 14:54:24;;;;;;;22.75;16.45;;;;;;;;;;6252021;28;20046;-64
2021/10/26 14:57:26;;;;;;;23.35;16.65;;;;;;;;;;6237460;28;20141;-66
2021/10/26 15:00:27;;;;;;;29.33;16.65;;;;;;;;;;6238904;28;20186;-66
2021/10/26 15:03:29;;;;;;;23.60;16.13;;;;;;;;;;6240554;28;20666;-65
2021/10/26 15:06:33;;;;;;;23.67;17.25;;;;;;;;;;6235892;28;20467;-65
2021/10/26 15:09:39;;;;;;;21.58;16.52;;;;;;;;;;6247361;28;20132;-65
2021/10/26 15:12:43;;;;;;;21.90;14.75;;;;;;;;;;6237222;28;20089;-65
2021/10/26 15:15:45;;;;;;;24.08;16.27;;;;;;;;;;6230830;28;20059;-65
2021/10/26 15:18:48;;;;;;;22.30;16.08;;;;;;;;;;6241748;28;20049;-64
2021/10/26 15:22:02;;;;;;;26.02;17.50;;;;;;;;;;6234118;28;20061;-66
2021/10/26 15:35:13;;;;;;;20.60;15.85;;;;;;;;;;6233545;28;20041;-67
2021/10/26 15:38:16;;;;;;;20.75;16.27;;;;;;;;;;6238725;28;20148;-67
2021/10/26 15:41:17;;;;;;;23.17;17.10;;;;;;;;;;6238943;28;20063;-66
2021/10/26 15:44:22;;;;;;;22.30;16.40;;;;;;;;;;6225447;28;20352;-66
2021/10/26 15:47:24;;;;;;;25.75;17.30;;;;;;;;;;6231923;28;20041;-68
2021/10/26 15:50:25;;;;;;;25.27;17.65;;;;;;;;;;6232788;28;20032;-67
2021/10/26 15:53:28;;;;;;;22.92;17.15;;;;;;;;;;6241077;28;20460;-66
2021/10/26 15:56:29;;;;;;;24.60;17.05;;;;;;;;;;6234553;28;20045;-66
2021/10/26 15:59:31;;;;;;;27.35;18.83;;;;;;;;;;6248110;28;20491;-66
2021/10/26 16:02:32;;;;;;;24.67;17.75;;;;;;;;;;6229955;28;20044;-66
2021/10/26 16:05:34;;;;;;;27.48;18.55;;;;;;;;;;6230336;28;20112;-67
2021/10/26 16:08:37;;;;;;;26.77;19.98;;;;;;;;;;6246803;28;20045;-67
2021/10/26 16:11:45;;;;;;;30.83;21.17;;;;;;;;;;6234642;28;20485;-66
2021/10/26 16:14:59;;;;;;;26.75;20.52;;;;;;;;;;6252313;28;20041;-67
2021/10/26 16:18:01;;;;;;;;;;;;;;;;;;6226033;28;20037;-66
2021/10/26 16:21:03;;;;;;;27.15;19.35;;;;;;;;;;6233631;28;19925;-67
2021/10/26 16:24:06;;;;;;;25.98;19.25;;;;;;;;;;6247236;28;20079;-67
2021/10/26 16:27:08;;;;;;;26.33;18.87;;;;;;;;;;6233857;28;20048;-67
2021/10/26 16:30:11;;;;;;;27.83;20.02;;;;;;;;;;6238678;28;21045;-68
2021/10/26 16:33:14;;;;;;;30.30;20.63;;;;;;;;;;6236329;28;20041;-67
2021/10/26 16:36:16;;;;;;;28.90;20.42;;;;;;;;;;6206012;28;20638;-67
2021/10/26 16:39:19;;;;;;;29.42;21.05;;;;;;;;;;6243111;28;20052;-67
2021/10/26 16:42:23;;;;;;;31.83;20.27;;;;;;;;;;6234986;28;20435;-68
2021/10/26 16:45:32;;;;;;;26.08;19.85;;;;;;;;;;6243779;28;20095;-68
2021/10/26 16:48:33;;;;;;;26.73;20.45;;;;;;;;;;6248334;28;20073;-68
2021/10/26 16:51:35;;;;;;;28.65;20.33;;;;;;;;;;6236423;28;20130;-67
2021/10/26 16:54:38;;;;;;;29.48;21.00;;;;;;;;;;6243858;28;20132;-67
2021/10/26 16:57:39;;;;;;;31.58;19.60;;;;;;;;;;6244957;28;20045;-67
2021/10/26 17:00:41;;;;;;;27.17;20.25;;;;;;;;;;6234152;28;20133;-67
2021/10/26 17:03:44;;;;;;;30.17;21.40;;;;;;;;;;6240176;28;20053;-67
2021/10/26 17:06:46;;;;;;;31.33;20.52;;;;;;;;;;6232375;28;20052;-67
2021/10/26 17:09:49;;;;;;;31.42;19.83;;;;;;;;;;6245260;28;20112;-67
2021/10/26 17:12:51;;;;;;;28.90;20.35;;;;;;;;;;6231802;28;20111;-67
2021/10/26 17:15:54;;;;;;;33.17;21.50;;;;;;;;;;6220600;28;20073;-67
2021/10/26 17:18:55;;;;;;;39.63;23.33;;;;;;;;;;6244632;28;20142;-67
2021/10/26 17:21:57;;;;;;;32.58;22.20;;;;;;;;;;6240498;28;20132;-67
2021/10/26 17:25:03;;;;;;;39.17;23.77;;;;;;;;;;6244449;28;20093;-68
2021/10/26 17:28:04;;;;;;;35.88;22.85;;;;;;;;;;6238838;28;20049;-67
2021/10/26 17:31:06;;;;;;;38.13;22.50;;;;;;;;;;6234027;28;20568;-67
2021/10/26 17:34:07;;;;;;;35.35;22.40;;;;;;;;;;6244463;28;20046;-67
2021/10/26 17:37:09;;;;;;;38.13;22.17;;;;;;;;;;6236089;28;20168;-67
2021/10/26 17:40:16;;;;;;;38.92;22.85;;;;;;;;;;6242122;28;20148;-68
2021/10/26 17:43:19;;;;;;;37.47;23.63;;;;;;;;;;6245344;28;20060;-67
2021/10/26 17:46:28;;;;;;;36.55;22.55;;;;;;;;;;6233860;28;20061;-67
2021/10/26 17:49:30;;;;;;;38.03;22.75;;;;;;;;;;6220847;28;20087;-67
2021/10/26 17:52:31;;;;;;;38.80;23.80;;;;;;;;;;6240214;28;20362;-67
2021/10/26 17:55:34;;;;;;;41.03;23.25;;;;;;;;;;6237184;28;20118;-67
2021/10/26 17:58:38;;;;;;;36.30;22.57;;;;;;;;;;6247817;28;20539;-67
2021/10/26 18:01:40;;;;;;;38.17;22.58;;;;;;;;;;6229358;28;20052;-67
2021/10/26 18:04:41;;;;;;;37.15;23.55;;;;;;;;;;6247478;28;20537;-67
2021/10/26 18:07:43;;;;;;;37.08;22.55;;;;;;;;;;6235994;28;20057;-67
2021/10/26 18:10:46;;;;;;;36.35;23.55;;;;;;;;;;6237948;28;20494;-67
2021/10/26 18:13:48;;;;;;;36.38;23.17;;;;;;;;;;6243737;28;20457;-67